AirNav   Phillips 66 Aviation Fuel
 
 1429 users online  

2UT3 Fort Ranch Airport
Brigham City, Utah, USA


FAA INFORMATION EFFECTIVE 07 DECEMBER 2017

Location

FAA Identifier: 2UT3
Lat/Long: 41-29-31.8000N / 112-35-28.2000W
41-29.530000N / 112-35.470000W
41.4921667 / -112.5911667
(estimated)
Elevation: 4440 ft. / 1353 m (estimated)
Variation: 14E (2000)
From city: 25 miles SW of BRIGHAM CITY, UT
Time zone: UTC -7 (UTC -6 during Daylight Saving Time)
Zip code: 84307

Airport Operations

Airport use: Private use. Permission required prior to landing
Activation date: 07/2002
Control tower: no
ARTCC: SALT LAKE CITY CENTER
FSS: CEDAR CITY FLIGHT SERVICE STATION
Attendance: UNATNDD
Wind indicator: yes
Segmented circle: no

Nearby radio navigation aids

VOR radial/distance  VOR name  Freq  Var
OGDr292/27.4OGDEN VORTAC115.7014E
LHOr221/31.7BRIGHAM CITY VOR/DME112.9014E

Airport Services

Runway Information

Runway 16/34

Dimensions: 3000 x 50 ft. / 914 x 15 m
Surface: gravel
RUNWAY 16  RUNWAY 34
Traffic pattern: rightleft

Airport Ownership and Management from official FAA records

Ownership: Privately-owned
Owner: RIVERBEND ENTERPRISES INC.
P.O. BOX 50126
IDAHO FALLS, ID 83405
Phone 208-522-0085
Manager: WILL MILHAM
280 INT'L WAY
IDAHO FALLS, ID 83402
Phone 208-522-0085

Additional Remarks

OWNER DESIRES ARPT NOT BE CHARTED.

Instrument Procedures

There are no published instrument procedures at 2UT3.

Some nearby airports with instrument procedures:

KBMC - Brigham City Airport (24 nm E)
KOGD - Ogden-Hinckley Airport (32 nm SE)
KHIF - Hill Air Force Base (36 nm SE)
KLGU - Logan-Cache Airport (38 nm NE)
KSLC - Salt Lake City International Airport (51 nm SE)
 
Loc | Ops | Rwys | IFR | FBO | Links
Com | Nav | Svcs | Stats | Notes


 
Area around 2UT3 (Fort Ranch Airport)
 
Road maps at: MapQuest Bing Google
 
Aerial photo
No photo
 
Sectional chart

 
Airport distance calculator
Flying to Fort Ranch Airport? Find the distance to fly.

From to 2UT3

Sunrise and sunset
Times for 14-Dec-2017
 Local
(UTC-7)
 Zulu
(UTC)
Morning civil twilight07:1914:19
Sunrise07:5014:50
Sunset17:0000:00
Evening civil twilight17:3100:31

Current date and time
Zulu (UTC)  14-Dec-2017 17:11:50
Local (UTC-7)  14-Dec-2017 10:11:50
 
METAR
KBMC 
24nm E 
141655Z AUTO 15004KT 4SM CLR M03/M04 A3046 RMK AO1 T10281041
KOGD 
31nm SE 
141653Z 00000KT 5SM BR CLR M01/M03 A3044 RMK AO2 SLP327 T10111028
KHIF 
36nm SE 
141558Z AUTO 15004KT 7SM CLR M03/M04 A3041 RMK AO2 SLP325 T10331044 FZRANO $
KLGU 
38nm NE 
141651Z AUTO 34003KT 4SM BR CLR M05/M07 A3047 RMK AO2 SLP350 T10501072
TAF
KOGD 
31nm SE 
141127Z 1412/1512 20003KT 5SM BR BCFG SCT020 FM141800 33006KT 6SM HZ SCT015 FM150200 17006KT 6SM HZ SCT020
KHIF 
36nm SE 
141301Z 1413/1519 12006KT 4800 BR FEW020 QNH3035INS BECMG 1418/1419 32009KT 4800 BR FEW010 QNH3041INS BECMG 1503/1504 12006KT 6000 HZ FEW020 QNH3041INS TX02/1423Z TNM07/1415Z
KLGU 
38nm NE 
141614Z 1416/1512 34005KT 5SM BR FEW010 FM150200 VRB04KT 3SM BR BCFG BKN006 AMD NOT SKED
NOTAMs
Click for the latest NOTAMs
NOTAMs are issued by the DoD/FAA and will open in a separate window not controlled by AirNav.

 

 
 

Would you like to see your business listed on this page?

 If your business provides an interesting product or service to pilots, flight crews, aircraft, or users of the Fort Ranch Airport, you should consider listing it here.  To start the listing process, click on the button below
 
Add a business
 

Other Pages about Fort Ranch Airport

Update a link
 
Copyright © AirNav, LLC. All rights reserved. Privacy Policy  Contact